Gulf Reliance — WDD2703 — position and weather

sailwx.info

Track history (hours):
 
Tides and Currents Weather Stations Pressure Air Temp Water Temp Dewpoint Dewpoint Depression Visibility Wind Speed Wind Dir Waves Ship Positions

Gulf Reliance

Owner: Intrepid Ship Management, Jacksonville, FL. More information available from US FCC via Universal Licensing System and Coast Guard Vessel Documentation Center.

Last reported at 2017-Nov-19 05:00 UTC. Time now 2017-Nov-19 05:09 UTC.
Position N 33°45' W 118°16'.

Type: Towing. MMSI: 303668000.

Date/timePositionNaut miles runAvg speedWind from/ knotsBaromVisibWave heightAir tempDewpointWater temp
2017-Nov-19 05:00N 33°45' W 118°16'0 0.0
2017-Nov-19 04:15N 33°45' W 118°16'0 0.3
2017-Nov-19 03:58N 33°45' W 118°16'2 3.8
2017-Nov-19 03:30N 33°43' W 118°16'4 6.8
2017-Nov-19 02:59N 33°40' W 118°15'510.3
2017-Nov-19 02:30N 33°36' W 118°18'612.5
2017-Nov-19 02:00N 33°36' W 118°25'612.1
2017-Nov-19 01:30N 33°36' W 118°33'611.9
2017-Nov-19 01:00N 33°36' W 118°40'712.1
2017-Nov-19 00:27N 33°37' W 118°48'512.0
2017-Nov-19 00:00N 33°38' W 118°54'611.9
2017-Nov-18 23:30N 33°38' W 119°01'711.7
2017-Nov-18 22:55N 33°38' W 119°09'511.8
2017-Nov-18 22:28N 33°38' W 119°16'612.2
2017-Nov-18 22:00N 33°38' W 119°23'611.8
2017-Nov-18 21:29N 33°38' W 119°30'611.7
2017-Nov-18 21:00N 33°38' W 119°37'510.1
2017-Nov-18 20:30N 33°38' W 119°43'611.5
2017-Nov-18 20:00N 33°38' W 119°50'611.8
2017-Nov-18 19:30N 33°38' W 119°57'611.7
2017-Nov-18 19:00N 33°38' W 120°04'611.5
2017-Nov-18 18:30N 33°38' W 120°11'611.7
2017-Nov-18 18:00N 33°39' W 120°18'612.0
2017-Nov-18 17:30N 33°41' W 120°24'611.9
2017-Nov-18 17:00N 33°44' W 120°31'611.4
2017-Nov-18 16:30N 33°46' W 120°37'611.1
2017-Nov-18 16:00N 33°48' W 120°43'611.2
2017-Nov-18 15:28N 33°50' W 120°50'511.2
2017-Nov-18 15:00N 33°52' W 120°56'611.4
2017-Nov-18 14:29N 33°55' W 121°02'611.7
2017-Nov-18 14:00N 33°57' W 121°08'611.7
2017-Nov-18 13:30N 33°59' W 121°15'611.8
2017-Nov-18 13:00N 34°02' W 121°21'611.7
2017-Nov-18 12:30N 34°04' W 121°28'611.5
2017-Nov-18 12:00N 34°06' W 121°34'611.6
2017-Nov-18 11:30N 34°11' W 121°39'611.7
2017-Nov-18 11:00N 34°15' W 121°43'612.1
2017-Nov-18 10:30N 34°20' W 121°48'612.3
2017-Nov-18 10:00N 34°25' W 121°53'612.2
2017-Nov-18 09:30N 34°29' W 121°57'611.6
2017-Nov-18 09:00N 34°34' W 122°02'611.4
2017-Nov-18 08:30N 34°38' W 122°07'911.7
2017-Nov-18 07:46N 34°44' W 122°13'411.8
2017-Nov-18 07:28N 34°47' W 122°16'2211.8
2017-Nov-18 05:38N 35°04' W 122°33'1312.2
2017-Nov-18 04:35N 35°14' W 122°43'1212.7
2017-Nov-18 03:38N 35°23' W 122°52'312.8
2017-Nov-18 03:25N 35°25' W 122°55'512.8
2017-Nov-18 03:00N 35°29' W 122°59'612.7
2017-Nov-18 02:30N 35°35' W 123°01'712.8
2017-Nov-18 01:59N 35°42' W 123°03'712.4
2017-Nov-18 01:25N 35°48' W 123°05'612.1
2017-Nov-18 00:54N 35°55' W 123°07'612.0
2017-Nov-18 00:23N 36°01' W 123°09'8810.2
2017-Nov-17 15:46N 37°29' W 123°10'311.6
2017-Nov-17 15:30N 37°31' W 123°08'611.2
2017-Nov-17 15:00N 37°35' W 123°03'510.5
2017-Nov-17 14:30N 37°38' W 122°57'510.1
2017-Nov-17 14:00N 37°40' W 122°52'510.6
2017-Nov-17 13:30N 37°43' W 122°46'510.9
2017-Nov-17 13:00N 37°45' W 122°40'612.1
2017-Nov-17 12:30N 37°48' W 122°33'611.9
2017-Nov-17 12:01N 37°51' W 122°26'4 7.8
2017-Nov-17 11:30N 37°54' W 122°27'611.9
2017-Nov-17 11:00N 38°00' W 122°25'611.5
2017-Nov-17 10:30N 38°03' W 122°18'5 9.1
2017-Nov-17 09:58N 38°04' W 122°12'3 7.2
2017-Nov-17 09:30N 38°02' W 122°09'0 1.0
2017-Nov-17 09:00N 38°02' W 122°08'0 0.0
2017-Nov-17 08:30N 38°02' W 122°08'0 0.0
2017-Nov-17 08:00N 38°02' W 122°08'0 0.0
2017-Nov-17 07:30N 38°02' W 122°08'0 0.0
2017-Nov-17 07:00N 38°02' W 122°08'0 0.0
2017-Nov-17 06:30N 38°02' W 122°08'0 0.0
2017-Nov-17 06:00N 38°02' W 122°08'0 0.0
2017-Nov-17 05:30N 38°02' W 122°08'0 0.0
2017-Nov-17 05:00N 38°02' W 122°08'0 0.0
2017-Nov-17 04:30N 38°02' W 122°08'0 0.0
2017-Nov-17 03:54N 38°02' W 122°08'0 0.0
2017-Nov-17 03:30N 38°02' W 122°08'0 0.0
2017-Nov-17 02:48N 38°02' W 122°08'0 0.0
2017-Nov-17 02:30N 38°02' W 122°08'0 0.0
2017-Nov-17 02:00N 38°02' W 122°08'0 0.0
2017-Nov-17 01:24N 38°02' W 122°08'0 0.0
2017-Nov-17 01:00N 38°02' W 122°08'0 0.0
2017-Nov-17 00:30N 38°02' W 122°08'0 0.0
2017-Nov-16 23:54N 38°02' W 122°08'0 0.0
2017-Nov-16 23:30N 38°02' W 122°08'0 0.0
2017-Nov-16 23:00N 38°02' W 122°08'0 0.0
2017-Nov-16 22:24N 38°02' W 122°08'0 0.0
2017-Nov-16 22:00N 38°02' W 122°08'0 0.0
2017-Nov-16 21:18N 38°02' W 122°08'0 0.0
2017-Nov-16 20:54N 38°02' W 122°08'0 0.0
2017-Nov-16 20:30N 38°02' W 122°08'0 0.0
2017-Nov-16 19:54N 38°02' W 122°08'0 0.0
2017-Nov-16 19:30N 38°02' W 122°08'0 0.0
2017-Nov-16 19:00N 38°02' W 122°08'0 0.0
2017-Nov-16 18:30N 38°02' W 122°08'0 0.0
2017-Nov-16 18:00N 38°02' W 122°08'0 0.0
2017-Nov-16 17:24N 38°02' W 122°08'0 0.0
2017-Nov-16 17:00N 38°02' W 122°08'0 0.0
2017-Nov-16 16:30N 38°02' W 122°08'0 0.0
2017-Nov-16 16:00N 38°02' W 122°08'0 0.0
2017-Nov-16 15:24N 38°02' W 122°08'0 0.0
2017-Nov-16 15:00N 38°02' W 122°08'0 0.0
2017-Nov-16 14:30N 38°02' W 122°08'0 0.0
2017-Nov-16 14:00N 38°02' W 122°08'0 0.0
2017-Nov-16 13:24N 38°02' W 122°08'0 0.0
2017-Nov-16 13:00N 38°02' W 122°08'0 0.0
2017-Nov-16 12:30N 38°02' W 122°08'0 0.0
2017-Nov-16 11:48N 38°02' W 122°08'0 0.0
2017-Nov-16 11:30N 38°02' W 122°08'0 0.0
2017-Nov-16 10:54N 38°02' W 122°08'0 0.0
2017-Nov-16 10:30N 38°02' W 122°08'0 0.0
2017-Nov-16 10:00N 38°02' W 122°08'0 0.0
2017-Nov-16 09:30N 38°02' W 122°08'0 0.0
2017-Nov-16 08:54N 38°02' W 122°08'0 0.0
2017-Nov-16 08:30N 38°02' W 122°08'0 0.0
2017-Nov-16 08:00N 38°02' W 122°08'0 0.0
2017-Nov-16 07:30N 38°02' W 122°08'0 0.0
2017-Nov-16 07:00N 38°02' W 122°08'0 0.0
2017-Nov-16 06:30N 38°02' W 122°08'0 0.0
2017-Nov-16 06:00N 38°02' W 122°08'0 0.0
2017-Nov-16 05:30N 38°02' W 122°08'0 0.0
2017-Nov-16 05:00N 38°02' W 122°08'0 0.0
2017-Nov-16 04:30N 38°02' W 122°08'0 0.0
2017-Nov-16 03:54N 38°02' W 122°08'2 3.4
2017-Nov-16 03:14N 38°03' W 122°11'2 9.6
2017-Nov-16 02:59N 38°04' W 122°13'5 9.9
2017-Nov-16 02:30N 38°03' W 122°19'510.6
2017-Nov-16 02:00N 38°00' W 122°25'510.4
2017-Nov-16 01:30N 37°55' W 122°27'510.6
2017-Nov-16 01:00N 37°50' W 122°24'510.3
2017-Nov-16 00:30N 37°46' W 122°20'0 0.3
2017-Nov-16 00:00N 37°46' W 122°20'0 0.0
2017-Nov-15 23:30N 37°46' W 122°20'0 0.0
2017-Nov-15 23:00N 37°46' W 122°20'0 0.0
2017-Nov-15 22:31N 37°46' W 122°20'0 0.0
2017-Nov-15 22:01N 37°46' W 122°20'0 0.0
2017-Nov-15 21:30N 37°46' W 122°20'0 0.0
2017-Nov-15 21:01N 37°46' W 122°20'0 0.0
2017-Nov-15 20:31N 37°46' W 122°20'0 0.0
2017-Nov-15 20:01N 37°46' W 122°20'0 0.1
2017-Nov-15 19:31N 37°46' W 122°20'0 0.1
2017-Nov-15 19:01N 37°46' W 122°20'0 0.2
2017-Nov-15 18:30N 37°46' W 122°20'0 0.3
2017-Nov-15 18:00N 37°46' W 122°20'0 0.1
2017-Nov-15 17:30N 37°46' W 122°20'0 0.0
2017-Nov-15 17:00N 37°46' W 122°20'0 0.0
2017-Nov-15 16:30N 37°46' W 122°20'0 0.0
2017-Nov-15 16:00N 37°46' W 122°20'0 0.1
2017-Nov-15 15:30N 37°46' W 122°20'0 0.0
2017-Nov-15 15:01N 37°46' W 122°20'0 0.0
2017-Nov-15 14:30N 37°46' W 122°20'0 0.0
2017-Nov-15 14:01N 37°46' W 122°20'0 0.0
2017-Nov-15 13:30N 37°46' W 122°20'0 0.1
2017-Nov-15 13:00N 37°46' W 122°20'2 4.0
2017-Nov-15 12:30N 37°47' W 122°23'510.8
2017-Nov-15 12:00N 37°49' W 122°29'510.7
2017-Nov-15 11:30N 37°47' W 122°35'510.8
2017-Nov-15 11:00N 37°44' W 122°41'611.5
2017-Nov-15 10:30N 37°41' W 122°47'611.7
2017-Nov-15 10:00N 37°37' W 122°53'611.6
2017-Nov-15 09:30N 37°34' W 122°59'510.5
2017-Nov-15 09:00N 37°30' W 123°03'611.2
2017-Nov-15 08:30N 37°25' W 123°05'611.3
2017-Nov-15 08:00N 37°19' W 123°07'611.2
2017-Nov-15 07:30N 37°14' W 123°08'611.0
2017-Nov-15 07:00N 37°08' W 123°10'511.0
2017-Nov-15 06:30N 37°03' W 123°11'611.0
2017-Nov-15 06:00N 36°58' W 123°13'611.0
2017-Nov-15 05:30N 36°52' W 123°14'611.4
2017-Nov-15 05:00N 36°47' W 123°16'611.5
2017-Nov-15 04:30N 36°41' W 123°17'6510.3
2017-Nov-14 22:11N 35°37' W 123°02'2 9.9
2017-Nov-14 21:57N 35°35' W 123°01'5510.6
2017-Nov-14 16:46N 34°50' W 122°21'1110.9
2017-Nov-14 15:48N 34°43' W 122°12'410.9
2017-Nov-14 15:23N 34°40' W 122°09'510.8
2017-Nov-14 14:58N 34°36' W 122°05'510.6
2017-Nov-14 14:30N 34°32' W 122°01'510.4
2017-Nov-14 14:00N 34°29' W 121°57'510.4
2017-Nov-14 13:30N 34°25' W 121°53'710.8
2017-Nov-14 12:48N 34°19' W 121°47'310.8
2017-Nov-14 12:30N 34°16' W 121°45'611.2
2017-Nov-14 12:00N 34°12' W 121°40'611.3
2017-Nov-14 11:30N 34°08' W 121°36'611.1
2017-Nov-14 11:00N 34°05' W 121°30'611.3
2017-Nov-14 10:30N 34°03' W 121°24'611.3
2017-Nov-14 10:00N 34°00' W 121°18'611.2
2017-Nov-14 09:30N 33°58' W 121°12'611.2
2017-Nov-14 09:00N 33°56' W 121°05'611.5
2017-Nov-14 08:30N 33°53' W 120°59'611.4
2017-Nov-14 08:00N 33°51' W 120°53'611.3
2017-Nov-14 07:30N 33°49' W 120°47'611.1
2017-Nov-14 07:00N 33°47' W 120°40'610.9
2017-Nov-14 06:29N 33°45' W 120°34'511.2
2017-Nov-14 06:00N 33°43' W 120°28'611.1
2017-Nov-14 05:30N 33°41' W 120°22'611.0
2017-Nov-14 04:59N 33°40' W 120°15'510.9
2017-Nov-14 04:30N 33°40' W 120°09'611.4
2017-Nov-14 04:00N 33°41' W 120°02'611.2
2017-Nov-14 03:30N 33°41' W 119°55'611.5
2017-Nov-14 03:00N 33°41' W 119°48'611.6
2017-Nov-14 02:30N 33°41' W 119°41'611.5
2017-Nov-14 01:58N 33°41' W 119°34'511.2
2017-Nov-14 01:30N 33°41' W 119°27'611.4
2017-Nov-14 00:59N 33°41' W 119°20'611.8
2017-Nov-14 00:29N 33°41' W 119°13'611.7
2017-Nov-14 00:00N 33°41' W 119°06'612.0
2017-Nov-13 23:30N 33°41' W 118°60'611.9
2017-Nov-13 22:58N 33°40' W 118°52'511.8
2017-Nov-13 22:30N 33°40' W 118°45'611.5
2017-Nov-13 22:00N 33°39' W 118°38'20 0.9
2017-Nov-13 01:18N 33°45' W 118°16'0 0.0
2017-Nov-13 01:00N 33°45' W 118°16'0 0.0
2017-Nov-12 23:54N 33°45' W 118°16'0 0.0
2017-Nov-12 23:16N 33°45' W 118°16'0 0.0
2017-Nov-12 22:54N 33°45' W 118°16'0 0.0
2017-Nov-12 22:28N 33°45' W 118°16'0 0.0
2017-Nov-12 22:00N 33°45' W 118°16'0 0.0
2017-Nov-12 20:23N 33°45' W 118°16'0 0.0
2017-Nov-12 14:12N 33°45' W 118°16'4 4.4
2017-Nov-12 13:16N 33°42' W 118°13'0 0.5
2017-Nov-12 13:00N 33°42' W 118°13'0 0.0
2017-Nov-12 09:48N 33°42' W 118°13'0 0.0
2017-Nov-12 09:28N 33°42' W 118°13'0 0.0
2017-Nov-12 08:46N 33°42' W 118°13'0 0.1
2017-Nov-12 08:00N 33°42' W 118°13'0 0.0
2017-Nov-12 03:22N 33°42' W 118°13'0 0.1
2017-Nov-12 02:58N 33°42' W 118°13'0 0.0
2017-Nov-12 02:30N 33°42' W 118°13'0 0.0
2017-Nov-12 01:24N 33°42' W 118°13'0 0.0
2017-Nov-12 01:00N 33°42' W 118°13'0 0.0
2017-Nov-12 00:30N 33°42' W 118°13'0 0.1
2017-Nov-11 23:52N 33°42' W 118°13'2 2.3
2017-Nov-11 23:05N 33°40' W 118°13'1 9.3
2017-Nov-11 23:00N 33°39' W 118°13'7 9.6
2017-Nov-11 22:19N 33°36' W 118°20'510.4
2017-Nov-11 21:52N 33°36' W 118°25'410.0
2017-Nov-11 21:30N 33°36' W 118°30'5 9.8
2017-Nov-11 21:00N 33°36' W 118°36'510.0
2017-Nov-11 20:30N 33°36' W 118°42'510.0
2017-Nov-11 20:00N 33°37' W 118°48'5 9.8
2017-Nov-11 19:30N 33°37' W 118°53'5 9.8
2017-Nov-11 19:00N 33°38' W 118°59'5 9.4
2017-Nov-11 18:30N 33°38' W 119°05'5 9.2
2017-Nov-11 18:00N 33°38' W 119°10'5 9.5
2017-Nov-11 17:30N 33°38' W 119°16'5 9.4
2017-Nov-11 17:00N 33°38' W 119°22'5 9.2
2017-Nov-11 16:28N 33°38' W 119°28'4 9.4
2017-Nov-11 16:00N 33°38' W 119°33'5 9.2
2017-Nov-11 15:30N 33°38' W 119°38'5 9.0
2017-Nov-11 14:59N 33°38' W 119°44'4 8.9
2017-Nov-11 14:29N 33°38' W 119°49'4 9.0
2017-Nov-11 14:00N 33°38' W 119°55'5 9.3
2017-Nov-11 13:30N 33°38' W 120°00'5 9.6
2017-Nov-11 13:00N 33°38' W 120°06'5 9.6
2017-Nov-11 12:29N 33°38' W 120°12'4 9.4
2017-Nov-11 12:00N 33°39' W 120°17'5 9.7
2017-Nov-11 11:30N 33°40' W 120°23'5 9.3
2017-Nov-11 11:00N 33°42' W 120°28'5 9.4
2017-Nov-11 10:30N 33°44' W 120°33'5 9.5
2017-Nov-11 10:00N 33°46' W 120°38'5 9.3
2017-Nov-11 09:30N 33°47' W 120°44'5 9.4
2017-Nov-11 08:58N 33°49' W 120°49'4 9.3
2017-Nov-11 08:30N 33°51' W 120°54'5 9.6
2017-Nov-11 08:00N 33°54' W 120°59'5 9.6
2017-Nov-11 07:30N 33°56' W 121°04'5 9.6
2017-Nov-11 07:00N 33°57' W 121°09'5 9.9
2017-Nov-11 06:30N 33°59' W 121°15'5 9.9
2017-Nov-11 06:00N 34°01' W 121°20'5 9.7
2017-Nov-11 05:30N 34°03' W 121°26'5 9.7
2017-Nov-11 05:00N 34°05' W 121°31'5 9.4
2017-Nov-11 04:30N 34°08' W 121°35'5 9.8
2017-Nov-11 04:00N 34°12' W 121°39'5 9.8
2017-Nov-11 03:30N 34°15' W 121°43'5 9.9
2017-Nov-11 03:00N 34°19' W 121°47'610.3
2017-Nov-11 02:24N 34°24' W 121°52'410.1
2017-Nov-11 02:00N 34°27' W 121°55'5 9.7
2017-Nov-11 01:30N 34°31' W 121°59'5 9.5
2017-Nov-11 01:00N 34°34' W 122°02'5 9.9
2017-Nov-11 00:29N 34°38' W 122°07'610.8
2017-Nov-10 23:57N 34°42' W 122°11'711.5
2017-Nov-10 23:19N 34°48' W 122°18'8111.2
2017-Nov-10 16:05N 35°58' W 123°08'112.0
2017-Nov-10 15:58N 35°59' W 123°09'8810.5
2017-Nov-10 07:38N 37°27' W 123°12'211.0
2017-Nov-10 07:26N 37°29' W 123°10'511.2
2017-Nov-10 07:00N 37°32' W 123°06'510.3
2017-Nov-10 06:30N 37°35' W 123°01'5 9.8
2017-Nov-10 06:00N 37°38' W 122°56'5 9.8
2017-Nov-10 05:30N 37°41' W 122°51'510.3
2017-Nov-10 05:00N 37°44' W 122°46'5 9.4
2017-Nov-10 04:31N 37°45' W 122°40'611.0
2017-Nov-10 04:00N 37°47' W 122°34'612.4
2017-Nov-10 03:30N 37°50' W 122°27'5 9.0
2017-Nov-10 03:00N 37°55' W 122°27'612.4
2017-Nov-10 02:30N 38°01' W 122°24'510.3
2017-Nov-10 02:00N 38°03' W 122°18'4 8.6
2017-Nov-10 01:30N 38°04' W 122°13'4 7.2
2017-Nov-10 01:00N 38°02' W 122°09'1 1.5
2017-Nov-10 00:27N 38°02' W 122°08'0 0.0
2017-Nov-09 23:50N 38°02' W 122°08'0 0.0
2017-Nov-09 23:26N 38°02' W 122°08'0 0.0
2017-Nov-09 22:57N 38°02' W 122°08'0 0.0
2017-Nov-09 22:27N 38°02' W 122°08'0 0.0
2017-Nov-09 21:50N 38°02' W 122°08'0 0.0
2017-Nov-09 21:26N 38°02' W 122°08'0 0.0
2017-Nov-09 20:56N 38°02' W 122°08'0 0.0
2017-Nov-09 20:26N 38°02' W 122°08'0 0.0
2017-Nov-09 19:56N 38°02' W 122°08'0 0.0
2017-Nov-09 19:26N 38°02' W 122°08'0 0.0
2017-Nov-09 18:56N 38°02' W 122°08'0 0.0
2017-Nov-09 18:20N 38°02' W 122°08'0 0.0
2017-Nov-09 17:57N 38°02' W 122°08'0 0.0
2017-Nov-09 17:26N 38°02' W 122°08'0 0.0
2017-Nov-09 16:44N 38°02' W 122°08'0 0.0
2017-Nov-09 16:26N 38°02' W 122°08'0 0.0
2017-Nov-09 15:50N 38°02' W 122°08'0 0.0
2017-Nov-09 15:26N 38°02' W 122°08'0 0.0
2017-Nov-09 14:44N 38°02' W 122°08'0 0.0
2017-Nov-09 14:27N 38°02' W 122°08'0 0.0
2017-Nov-09 13:56N 38°02' W 122°08'0 0.0
2017-Nov-09 13:26N 38°02' W 122°08'0 0.0
2017-Nov-09 12:56N 38°02' W 122°08'0 0.0
2017-Nov-09 12:26N 38°02' W 122°08'0 0.0
2017-Nov-09 11:56N 38°02' W 122°08'0 0.0
2017-Nov-09 11:26N 38°02' W 122°08'0 0.0
2017-Nov-09 10:56N 38°02' W 122°08'0 0.0
2017-Nov-09 10:26N 38°02' W 122°08'0 0.0
2017-Nov-09 09:56N 38°02' W 122°08'0 0.0
2017-Nov-09 09:26N 38°02' W 122°08'0 0.0
2017-Nov-09 08:56N 38°02' W 122°08'0 0.0
2017-Nov-09 08:26N 38°02' W 122°08'0 0.0
2017-Nov-09 07:50N 38°02' W 122°08'0 0.0
2017-Nov-09 07:26N 38°02' W 122°08'0 0.0
2017-Nov-09 06:56N 38°02' W 122°08'0 0.0
2017-Nov-09 06:20N 38°02' W 122°08'0 0.0
2017-Nov-09 05:56N 38°02' W 122°08'0 0.0
2017-Nov-09 05:20N 38°02' W 122°08'  
Track history (hours):
 
Tides and Currents Weather Stations Pressure Air Temp Water Temp Dewpoint Dewpoint Depression Visibility Wind Speed Wind Dir Waves Ship Positions

Gulf Reliance

Owner: Intrepid Ship Management, Jacksonville, FL. More information available from US FCC via Universal Licensing System and Coast Guard Vessel Documentation Center.

Last reported at 2017-Nov-19 05:00 UTC. Time now 2017-Nov-19 05:09 UTC.
Position N 33°45' W 118°16'.

Type: Towing. MMSI: 303668000.

Date/timePositionNaut miles runAvg speedWind from/ knotsBaromVisibWave heightAir tempDewpointWater temp
2017-Nov-19 05:00N 33°45' W 118°16'0 0.0
2017-Nov-19 04:15N 33°45' W 118°16'0 0.3
2017-Nov-19 03:58N 33°45' W 118°16'2 3.8
2017-Nov-19 03:30N 33°43' W 118°16'4 6.8
2017-Nov-19 02:59N 33°40' W 118°15'510.3
2017-Nov-19 02:30N 33°36' W 118°18'612.5
2017-Nov-19 02:00N 33°36' W 118°25'612.1
2017-Nov-19 01:30N 33°36' W 118°33'611.9
2017-Nov-19 01:00N 33°36' W 118°40'712.1
2017-Nov-19 00:27N 33°37' W 118°48'512.0
2017-Nov-19 00:00N 33°38' W 118°54'611.9
2017-Nov-18 23:30N 33°38' W 119°01'711.7
2017-Nov-18 22:55N 33°38' W 119°09'511.8
2017-Nov-18 22:28N 33°38' W 119°16'612.2
2017-Nov-18 22:00N 33°38' W 119°23'611.8
2017-Nov-18 21:29N 33°38' W 119°30'611.7
2017-Nov-18 21:00N 33°38' W 119°37'510.1
2017-Nov-18 20:30N 33°38' W 119°43'611.5
2017-Nov-18 20:00N 33°38' W 119°50'611.8
2017-Nov-18 19:30N 33°38' W 119°57'611.7
2017-Nov-18 19:00N 33°38' W 120°04'611.5
2017-Nov-18 18:30N 33°38' W 120°11'611.7
2017-Nov-18 18:00N 33°39' W 120°18'612.0
2017-Nov-18 17:30N 33°41' W 120°24'611.9
2017-Nov-18 17:00N 33°44' W 120°31'611.4
2017-Nov-18 16:30N 33°46' W 120°37'611.1
2017-Nov-18 16:00N 33°48' W 120°43'611.2
2017-Nov-18 15:28N 33°50' W 120°50'511.2
2017-Nov-18 15:00N 33°52' W 120°56'611.4
2017-Nov-18 14:29N 33°55' W 121°02'611.7
2017-Nov-18 14:00N 33°57' W 121°08'611.7
2017-Nov-18 13:30N 33°59' W 121°15'611.8
2017-Nov-18 13:00N 34°02' W 121°21'611.7
2017-Nov-18 12:30N 34°04' W 121°28'611.5
2017-Nov-18 12:00N 34°06' W 121°34'611.6
2017-Nov-18 11:30N 34°11' W 121°39'611.7
2017-Nov-18 11:00N 34°15' W 121°43'612.1
2017-Nov-18 10:30N 34°20' W 121°48'612.3
2017-Nov-18 10:00N 34°25' W 121°53'612.2
2017-Nov-18 09:30N 34°29' W 121°57'611.6
2017-Nov-18 09:00N 34°34' W 122°02'611.4
2017-Nov-18 08:30N 34°38' W 122°07'911.7
2017-Nov-18 07:46N 34°44' W 122°13'411.8
2017-Nov-18 07:28N 34°47' W 122°16'2211.8
2017-Nov-18 05:38N 35°04' W 122°33'1312.2
2017-Nov-18 04:35N 35°14' W 122°43'1212.7
2017-Nov-18 03:38N 35°23' W 122°52'312.8
2017-Nov-18 03:25N 35°25' W 122°55'512.8
2017-Nov-18 03:00N 35°29' W 122°59'612.7
2017-Nov-18 02:30N 35°35' W 123°01'712.8
2017-Nov-18 01:59N 35°42' W 123°03'712.4
2017-Nov-18 01:25N 35°48' W 123°05'612.1
2017-Nov-18 00:54N 35°55' W 123°07'612.0
2017-Nov-18 00:23N 36°01' W 123°09'8810.2
2017-Nov-17 15:46N 37°29' W 123°10'311.6
2017-Nov-17 15:30N 37°31' W 123°08'611.2
2017-Nov-17 15:00N 37°35' W 123°03'510.5
2017-Nov-17 14:30N 37°38' W 122°57'510.1
2017-Nov-17 14:00N 37°40' W 122°52'510.6
2017-Nov-17 13:30N 37°43' W 122°46'510.9
2017-Nov-17 13:00N 37°45' W 122°40'612.1
2017-Nov-17 12:30N 37°48' W 122°33'611.9
2017-Nov-17 12:01N 37°51' W 122°26'4 7.8
2017-Nov-17 11:30N 37°54' W 122°27'611.9
2017-Nov-17 11:00N 38°00' W 122°25'611.5
2017-Nov-17 10:30N 38°03' W 122°18'5 9.1
2017-Nov-17 09:58N 38°04' W 122°12'3 7.2
2017-Nov-17 09:30N 38°02' W 122°09'0 1.0
2017-Nov-17 09:00N 38°02' W 122°08'0 0.0
2017-Nov-17 08:30N 38°02' W 122°08'0 0.0
2017-Nov-17 08:00N 38°02' W 122°08'0 0.0
2017-Nov-17 07:30N 38°02' W 122°08'0 0.0
2017-Nov-17 07:00N 38°02' W 122°08'0 0.0
2017-Nov-17 06:30N 38°02' W 122°08'0 0.0
2017-Nov-17 06:00N 38°02' W 122°08'0 0.0
2017-Nov-17 05:30N 38°02' W 122°08'0 0.0
2017-Nov-17 05:00N 38°02' W 122°08'0 0.0
2017-Nov-17 04:30N 38°02' W 122°08'0 0.0
2017-Nov-17 03:54N 38°02' W 122°08'0 0.0
2017-Nov-17 03:30N 38°02' W 122°08'0 0.0
2017-Nov-17 02:48N 38°02' W 122°08'0 0.0
2017-Nov-17 02:30N 38°02' W 122°08'0 0.0
2017-Nov-17 02:00N 38°02' W 122°08'0 0.0
2017-Nov-17 01:24N 38°02' W 122°08'0 0.0
2017-Nov-17 01:00N 38°02' W 122°08'0 0.0
2017-Nov-17 00:30N 38°02' W 122°08'0 0.0
2017-Nov-16 23:54N 38°02' W 122°08'0 0.0
2017-Nov-16 23:30N 38°02' W 122°08'0 0.0
2017-Nov-16 23:00N 38°02' W 122°08'0 0.0
2017-Nov-16 22:24N 38°02' W 122°08'0 0.0
2017-Nov-16 22:00N 38°02' W 122°08'0 0.0
2017-Nov-16 21:18N 38°02' W 122°08'0 0.0
2017-Nov-16 20:54N 38°02' W 122°08'0 0.0
2017-Nov-16 20:30N 38°02' W 122°08'0 0.0
2017-Nov-16 19:54N 38°02' W 122°08'0 0.0
2017-Nov-16 19:30N 38°02' W 122°08'0 0.0
2017-Nov-16 19:00N 38°02' W 122°08'0 0.0
2017-Nov-16 18:30N 38°02' W 122°08'0 0.0
2017-Nov-16 18:00N 38°02' W 122°08'0 0.0
2017-Nov-16 17:24N 38°02' W 122°08'0 0.0
2017-Nov-16 17:00N 38°02' W 122°08'0 0.0
2017-Nov-16 16:30N 38°02' W 122°08'0 0.0
2017-Nov-16 16:00N 38°02' W 122°08'0 0.0
2017-Nov-16 15:24N 38°02' W 122°08'0 0.0
2017-Nov-16 15:00N 38°02' W 122°08'0 0.0
2017-Nov-16 14:30N 38°02' W 122°08'0 0.0
2017-Nov-16 14:00N 38°02' W 122°08'0 0.0
2017-Nov-16 13:24N 38°02' W 122°08'0 0.0
2017-Nov-16 13:00N 38°02' W 122°08'0 0.0
2017-Nov-16 12:30N 38°02' W 122°08'0 0.0
2017-Nov-16 11:48N 38°02' W 122°08'0 0.0
2017-Nov-16 11:30N 38°02' W 122°08'0 0.0
2017-Nov-16 10:54N 38°02' W 122°08'0 0.0
2017-Nov-16 10:30N 38°02' W 122°08'0 0.0
2017-Nov-16 10:00N 38°02' W 122°08'0 0.0
2017-Nov-16 09:30N 38°02' W 122°08'0 0.0
2017-Nov-16 08:54N 38°02' W 122°08'0 0.0
2017-Nov-16 08:30N 38°02' W 122°08'0 0.0
2017-Nov-16 08:00N 38°02' W 122°08'0 0.0
2017-Nov-16 07:30N 38°02' W 122°08'0 0.0
2017-Nov-16 07:00N 38°02' W 122°08'0 0.0
2017-Nov-16 06:30N 38°02' W 122°08'0 0.0
2017-Nov-16 06:00N 38°02' W 122°08'0 0.0
2017-Nov-16 05:30N 38°02' W 122°08'0 0.0
2017-Nov-16 05:00N 38°02' W 122°08'0 0.0
2017-Nov-16 04:30N 38°02' W 122°08'0 0.0
2017-Nov-16 03:54N 38°02' W 122°08'2 3.4
2017-Nov-16 03:14N 38°03' W 122°11'2 9.6
2017-Nov-16 02:59N 38°04' W 122°13'5 9.9
2017-Nov-16 02:30N 38°03' W 122°19'510.6
2017-Nov-16 02:00N 38°00' W 122°25'510.4
2017-Nov-16 01:30N 37°55' W 122°27'510.6
2017-Nov-16 01:00N 37°50' W 122°24'510.3
2017-Nov-16 00:30N 37°46' W 122°20'0 0.3
2017-Nov-16 00:00N 37°46' W 122°20'0 0.0
2017-Nov-15 23:30N 37°46' W 122°20'0 0.0
2017-Nov-15 23:00N 37°46' W 122°20'0 0.0
2017-Nov-15 22:31N 37°46' W 122°20'0 0.0
2017-Nov-15 22:01N 37°46' W 122°20'0 0.0
2017-Nov-15 21:30N 37°46' W 122°20'0 0.0
2017-Nov-15 21:01N 37°46' W 122°20'0 0.0
2017-Nov-15 20:31N 37°46' W 122°20'0 0.0
2017-Nov-15 20:01N 37°46' W 122°20'0 0.1
2017-Nov-15 19:31N 37°46' W 122°20'0 0.1
2017-Nov-15 19:01N 37°46' W 122°20'0 0.2
2017-Nov-15 18:30N 37°46' W 122°20'0 0.3
2017-Nov-15 18:00N 37°46' W 122°20'0 0.1
2017-Nov-15 17:30N 37°46' W 122°20'0 0.0
2017-Nov-15 17:00N 37°46' W 122°20'0 0.0
2017-Nov-15 16:30N 37°46' W 122°20'0 0.0
2017-Nov-15 16:00N 37°46' W 122°20'0 0.1
2017-Nov-15 15:30N 37°46' W 122°20'0 0.0
2017-Nov-15 15:01N 37°46' W 122°20'0 0.0
2017-Nov-15 14:30N 37°46' W 122°20'0 0.0
2017-Nov-15 14:01N 37°46' W 122°20'0 0.0
2017-Nov-15 13:30N 37°46' W 122°20'0 0.1
2017-Nov-15 13:00N 37°46' W 122°20'2 4.0
2017-Nov-15 12:30N 37°47' W 122°23'510.8
2017-Nov-15 12:00N 37°49' W 122°29'510.7
2017-Nov-15 11:30N 37°47' W 122°35'510.8
2017-Nov-15 11:00N 37°44' W 122°41'611.5
2017-Nov-15 10:30N 37°41' W 122°47'611.7
2017-Nov-15 10:00N 37°37' W 122°53'611.6
2017-Nov-15 09:30N 37°34' W 122°59'510.5
2017-Nov-15 09:00N 37°30' W 123°03'611.2
2017-Nov-15 08:30N 37°25' W 123°05'611.3
2017-Nov-15 08:00N 37°19' W 123°07'611.2
2017-Nov-15 07:30N 37°14' W 123°08'611.0
2017-Nov-15 07:00N 37°08' W 123°10'511.0
2017-Nov-15 06:30N 37°03' W 123°11'611.0
2017-Nov-15 06:00N 36°58' W 123°13'611.0
2017-Nov-15 05:30N 36°52' W 123°14'611.4
2017-Nov-15 05:00N 36°47' W 123°16'611.5
2017-Nov-15 04:30N 36°41' W 123°17'6510.3
2017-Nov-14 22:11N 35°37' W 123°02'2 9.9
2017-Nov-14 21:57N 35°35' W 123°01'5510.6
2017-Nov-14 16:46N 34°50' W 122°21'1110.9
2017-Nov-14 15:48N 34°43' W 122°12'410.9
2017-Nov-14 15:23N 34°40' W 122°09'510.8
2017-Nov-14 14:58N 34°36' W 122°05'510.6
2017-Nov-14 14:30N 34°32' W 122°01'510.4
2017-Nov-14 14:00N 34°29' W 121°57'510.4
2017-Nov-14 13:30N 34°25' W 121°53'710.8
2017-Nov-14 12:48N 34°19' W 121°47'310.8
2017-Nov-14 12:30N 34°16' W 121°45'611.2
2017-Nov-14 12:00N 34°12' W 121°40'611.3
2017-Nov-14 11:30N 34°08' W 121°36'611.1
2017-Nov-14 11:00N 34°05' W 121°30'611.3
2017-Nov-14 10:30N 34°03' W 121°24'611.3
2017-Nov-14 10:00N 34°00' W 121°18'611.2
2017-Nov-14 09:30N 33°58' W 121°12'611.2
2017-Nov-14 09:00N 33°56' W 121°05'611.5
2017-Nov-14 08:30N 33°53' W 120°59'611.4
2017-Nov-14 08:00N 33°51' W 120°53'611.3
2017-Nov-14 07:30N 33°49' W 120°47'611.1
2017-Nov-14 07:00N 33°47' W 120°40'610.9
2017-Nov-14 06:29N 33°45' W 120°34'511.2
2017-Nov-14 06:00N 33°43' W 120°28'611.1
2017-Nov-14 05:30N 33°41' W 120°22'611.0
2017-Nov-14 04:59N 33°40' W 120°15'510.9
2017-Nov-14 04:30N 33°40' W 120°09'611.4
2017-Nov-14 04:00N 33°41' W 120°02'611.2
2017-Nov-14 03:30N 33°41' W 119°55'611.5
2017-Nov-14 03:00N 33°41' W 119°48'611.6
2017-Nov-14 02:30N 33°41' W 119°41'611.5
2017-Nov-14 01:58N 33°41' W 119°34'511.2
2017-Nov-14 01:30N 33°41' W 119°27'611.4
2017-Nov-14 00:59N 33°41' W 119°20'611.8
2017-Nov-14 00:29N 33°41' W 119°13'611.7
2017-Nov-14 00:00N 33°41' W 119°06'612.0
2017-Nov-13 23:30N 33°41' W 118°60'611.9
2017-Nov-13 22:58N 33°40' W 118°52'511.8
2017-Nov-13 22:30N 33°40' W 118°45'611.5
2017-Nov-13 22:00N 33°39' W 118°38'20 0.9
2017-Nov-13 01:18N 33°45' W 118°16'0 0.0
2017-Nov-13 01:00N 33°45' W 118°16'0 0.0
2017-Nov-12 23:54N 33°45' W 118°16'0 0.0
2017-Nov-12 23:16N 33°45' W 118°16'0 0.0
2017-Nov-12 22:54N 33°45' W 118°16'0 0.0
2017-Nov-12 22:28N 33°45' W 118°16'0 0.0
2017-Nov-12 22:00N 33°45' W 118°16'0 0.0
2017-Nov-12 20:23N 33°45' W 118°16'0 0.0
2017-Nov-12 14:12N 33°45' W 118°16'4 4.4
2017-Nov-12 13:16N 33°42' W 118°13'0 0.5
2017-Nov-12 13:00N 33°42' W 118°13'0 0.0
2017-Nov-12 09:48N 33°42' W 118°13'0 0.0
2017-Nov-12 09:28N 33°42' W 118°13'0 0.0
2017-Nov-12 08:46N 33°42' W 118°13'0 0.1
2017-Nov-12 08:00N 33°42' W 118°13'0 0.0
2017-Nov-12 03:22N 33°42' W 118°13'0 0.1
2017-Nov-12 02:58N 33°42' W 118°13'0 0.0
2017-Nov-12 02:30N 33°42' W 118°13'0 0.0
2017-Nov-12 01:24N 33°42' W 118°13'0 0.0
2017-Nov-12 01:00N 33°42' W 118°13'0 0.0
2017-Nov-12 00:30N 33°42' W 118°13'0 0.1
2017-Nov-11 23:52N 33°42' W 118°13'2 2.3
2017-Nov-11 23:05N 33°40' W 118°13'1 9.3
2017-Nov-11 23:00N 33°39' W 118°13'7 9.6
2017-Nov-11 22:19N 33°36' W 118°20'510.4
2017-Nov-11 21:52N 33°36' W 118°25'410.0
2017-Nov-11 21:30N 33°36' W 118°30'5 9.8
2017-Nov-11 21:00N 33°36' W 118°36'510.0
2017-Nov-11 20:30N 33°36' W 118°42'510.0
2017-Nov-11 20:00N 33°37' W 118°48'5 9.8
2017-Nov-11 19:30N 33°37' W 118°53'5 9.8
2017-Nov-11 19:00N 33°38' W 118°59'5 9.4
2017-Nov-11 18:30N 33°38' W 119°05'5 9.2
2017-Nov-11 18:00N 33°38' W 119°10'5 9.5
2017-Nov-11 17:30N 33°38' W 119°16'5 9.4
2017-Nov-11 17:00N 33°38' W 119°22'5 9.2
2017-Nov-11 16:28N 33°38' W 119°28'4 9.4
2017-Nov-11 16:00N 33°38' W 119°33'5 9.2
2017-Nov-11 15:30N 33°38' W 119°38'5 9.0
2017-Nov-11 14:59N 33°38' W 119°44'4 8.9
2017-Nov-11 14:29N 33°38' W 119°49'4 9.0
2017-Nov-11 14:00N 33°38' W 119°55'5 9.3
2017-Nov-11 13:30N 33°38' W 120°00'5 9.6
2017-Nov-11 13:00N 33°38' W 120°06'5 9.6
2017-Nov-11 12:29N 33°38' W 120°12'4 9.4
2017-Nov-11 12:00N 33°39' W 120°17'5 9.7
2017-Nov-11 11:30N 33°40' W 120°23'5 9.3
2017-Nov-11 11:00N 33°42' W 120°28'5 9.4
2017-Nov-11 10:30N 33°44' W 120°33'5 9.5
2017-Nov-11 10:00N 33°46' W 120°38'5 9.3
2017-Nov-11 09:30N 33°47' W 120°44'5 9.4
2017-Nov-11 08:58N 33°49' W 120°49'4 9.3
2017-Nov-11 08:30N 33°51' W 120°54'5 9.6
2017-Nov-11 08:00N 33°54' W 120°59'5 9.6
2017-Nov-11 07:30N 33°56' W 121°04'5 9.6
2017-Nov-11 07:00N 33°57' W 121°09'5 9.9
2017-Nov-11 06:30N 33°59' W 121°15'5 9.9
2017-Nov-11 06:00N 34°01' W 121°20'5 9.7
2017-Nov-11 05:30N 34°03' W 121°26'5 9.7
2017-Nov-11 05:00N 34°05' W 121°31'5 9.4
2017-Nov-11 04:30N 34°08' W 121°35'5 9.8
2017-Nov-11 04:00N 34°12' W 121°39'5 9.8
2017-Nov-11 03:30N 34°15' W 121°43'5 9.9
2017-Nov-11 03:00N 34°19' W 121°47'610.3
2017-Nov-11 02:24N 34°24' W 121°52'410.1
2017-Nov-11 02:00N 34°27' W 121°55'5 9.7
2017-Nov-11 01:30N 34°31' W 121°59'5 9.5
2017-Nov-11 01:00N 34°34' W 122°02'5 9.9
2017-Nov-11 00:29N 34°38' W 122°07'610.8
2017-Nov-10 23:57N 34°42' W 122°11'711.5
2017-Nov-10 23:19N 34°48' W 122°18'8111.2
2017-Nov-10 16:05N 35°58' W 123°08'112.0
2017-Nov-10 15:58N 35°59' W 123°09'8810.5
2017-Nov-10 07:38N 37°27' W 123°12'211.0
2017-Nov-10 07:26N 37°29' W 123°10'511.2
2017-Nov-10 07:00N 37°32' W 123°06'510.3
2017-Nov-10 06:30N 37°35' W 123°01'5 9.8
2017-Nov-10 06:00N 37°38' W 122°56'5 9.8
2017-Nov-10 05:30N 37°41' W 122°51'510.3
2017-Nov-10 05:00N 37°44' W 122°46'5 9.4
2017-Nov-10 04:31N 37°45' W 122°40'611.0
2017-Nov-10 04:00N 37°47' W 122°34'612.4
2017-Nov-10 03:30N 37°50' W 122°27'5 9.0
2017-Nov-10 03:00N 37°55' W 122°27'612.4
2017-Nov-10 02:30N 38°01' W 122°24'510.3
2017-Nov-10 02:00N 38°03' W 122°18'4 8.6
2017-Nov-10 01:30N 38°04' W 122°13'4 7.2
2017-Nov-10 01:00N 38°02' W 122°09'1 1.5
2017-Nov-10 00:27N 38°02' W 122°08'0 0.0
2017-Nov-09 23:50N 38°02' W 122°08'0 0.0
2017-Nov-09 23:26N 38°02' W 122°08'0 0.0
2017-Nov-09 22:57N 38°02' W 122°08'0 0.0
2017-Nov-09 22:27N 38°02' W 122°08'0 0.0
2017-Nov-09 21:50N 38°02' W 122°08'0 0.0
2017-Nov-09 21:26N 38°02' W 122°08'0 0.0
2017-Nov-09 20:56N 38°02' W 122°08'0 0.0
2017-Nov-09 20:26N 38°02' W 122°08'0 0.0
2017-Nov-09 19:56N 38°02' W 122°08'0 0.0
2017-Nov-09 19:26N 38°02' W 122°08'0 0.0
2017-Nov-09 18:56N 38°02' W 122°08'0 0.0
2017-Nov-09 18:20N 38°02' W 122°08'0 0.0
2017-Nov-09 17:57N 38°02' W 122°08'0 0.0
2017-Nov-09 17:26N 38°02' W 122°08'0 0.0
2017-Nov-09 16:44N 38°02' W 122°08'0 0.0
2017-Nov-09 16:26N 38°02' W 122°08'0 0.0
2017-Nov-09 15:50N 38°02' W 122°08'0 0.0
2017-Nov-09 15:26N 38°02' W 122°08'0 0.0
2017-Nov-09 14:44N 38°02' W 122°08'0 0.0
2017-Nov-09 14:27N 38°02' W 122°08'0 0.0
2017-Nov-09 13:56N 38°02' W 122°08'0 0.0
2017-Nov-09 13:26N 38°02' W 122°08'0 0.0
2017-Nov-09 12:56N 38°02' W 122°08'0 0.0
2017-Nov-09 12:26N 38°02' W 122°08'0 0.0
2017-Nov-09 11:56N 38°02' W 122°08'0 0.0
2017-Nov-09 11:26N 38°02' W 122°08'0 0.0
2017-Nov-09 10:56N 38°02' W 122°08'0 0.0
2017-Nov-09 10:26N 38°02' W 122°08'0 0.0
2017-Nov-09 09:56N 38°02' W 122°08'0 0.0
2017-Nov-09 09:26N 38°02' W 122°08'0 0.0
2017-Nov-09 08:56N 38°02' W 122°08'0 0.0
2017-Nov-09 08:26N 38°02' W 122°08'0 0.0
2017-Nov-09 07:50N 38°02' W 122°08'0 0.0
2017-Nov-09 07:26N 38°02' W 122°08'0 0.0
2017-Nov-09 06:56N 38°02' W 122°08'0 0.0
2017-Nov-09 06:20N 38°02' W 122°08'0 0.0
2017-Nov-09 05:56N 38°02' W 122°08'0 0.0
2017-Nov-09 05:20N 38°02' W 122°08'  

Dump ship's entire track history